sensor_id;sensor_type;location;lat;lon;timestamp;P1;durP1;ratioP1;P2;durP2;ratioP2
68140;SDS011;54941;52.220;104.306;2023-05-15T00:01:52;5.65;;;3.10;;
68140;SDS011;54941;52.220;104.306;2023-05-15T00:04:18;5.05;;;3.38;;
68140;SDS011;54941;52.220;104.306;2023-05-15T00:06:44;5.22;;;2.72;;
68140;SDS011;54941;52.220;104.306;2023-05-15T00:09:11;5.13;;;3.25;;
68140;SDS011;54941;52.220;104.306;2023-05-15T00:11:37;6.18;;;2.60;;
68140;SDS011;54941;52.220;104.306;2023-05-15T00:14:03;4.95;;;3.38;;
68140;SDS011;54941;52.220;104.306;2023-05-15T00:16:30;6.40;;;2.97;;
68140;SDS011;54941;52.220;104.306;2023-05-15T00:18:58;5.78;;;3.10;;
68140;SDS011;54941;52.220;104.306;2023-05-15T00:21:24;7.68;;;4.60;;
68140;SDS011;54941;52.220;104.306;2023-05-15T00:23:50;7.13;;;3.75;;
68140;SDS011;54941;52.220;104.306;2023-05-15T00:26:16;6.25;;;3.33;;
68140;SDS011;54941;52.220;104.306;2023-05-15T00:28:43;6.03;;;3.47;;
68140;SDS011;54941;52.220;104.306;2023-05-15T00:31:09;7.72;;;3.40;;
68140;SDS011;54941;52.220;104.306;2023-05-15T00:33:35;5.78;;;3.92;;
68140;SDS011;54941;52.220;104.306;2023-05-15T00:36:03;10.90;;;5.57;;
68140;SDS011;54941;52.220;104.306;2023-05-15T00:38:30;8.98;;;5.10;;
68140;SDS011;54941;52.220;104.306;2023-05-15T00:40:56;6.45;;;3.55;;
68140;SDS011;54941;52.220;104.306;2023-05-15T00:43:23;5.57;;;3.78;;
68140;SDS011;54941;52.220;104.306;2023-05-15T00:45:51;4.75;;;3.33;;
68140;SDS011;54941;52.220;104.306;2023-05-15T00:48:18;4.13;;;2.72;;
68140;SDS011;54941;52.220;104.306;2023-05-15T00:50:45;4.20;;;2.63;;
68140;SDS011;54941;52.220;104.306;2023-05-15T00:53:13;4.30;;;3.00;;
68140;SDS011;54941;52.220;104.306;2023-05-15T00:55:40;4.88;;;3.28;;
68140;SDS011;54941;52.220;104.306;2023-05-15T00:58:07;4.22;;;2.50;;
68140;SDS011;54941;52.220;104.306;2023-05-15T01:00:35;7.53;;;3.33;;
68140;SDS011;54941;52.220;104.306;2023-05-15T01:03:02;4.30;;;2.33;;
68140;SDS011;54941;52.220;104.306;2023-05-15T01:05:29;4.30;;;2.92;;
68140;SDS011;54941;52.220;104.306;2023-05-15T01:07:58;4.57;;;3.35;;
68140;SDS011;54941;52.220;104.306;2023-05-15T01:10:33;5.53;;;2.83;;
68140;SDS011;54941;52.220;104.306;2023-05-15T01:13:01;4.57;;;2.80;;
68140;SDS011;54941;52.220;104.306;2023-05-15T01:15:27;5.85;;;3.40;;
68140;SDS011;54941;52.220;104.306;2023-05-15T01:17:54;4.10;;;2.53;;
68140;SDS011;54941;52.220;104.306;2023-05-15T01:20:20;4.85;;;2.90;;
68140;SDS011;54941;52.220;104.306;2023-05-15T01:22:50;5.13;;;3.30;;
68140;SDS011;54941;52.220;104.306;2023-05-15T01:28:29;4.65;;;2.95;;
68140;SDS011;54941;52.220;104.306;2023-05-15T01:30:58;4.25;;;2.85;;
68140;SDS011;54941;52.220;104.306;2023-05-15T01:33:34;4.43;;;2.83;;
68140;SDS011;54941;52.220;104.306;2023-05-15T01:36:06;5.18;;;3.33;;
68140;SDS011;54941;52.220;104.306;2023-05-15T01:38:37;4.97;;;3.10;;
68140;SDS011;54941;52.220;104.306;2023-05-15T01:41:09;4.45;;;2.70;;
68140;SDS011;54941;52.220;104.306;2023-05-15T01:43:43;5.07;;;3.25;;
68140;SDS011;54941;52.220;104.306;2023-05-15T01:46:10;4.53;;;2.92;;
68140;SDS011;54941;52.220;104.306;2023-05-15T01:48:39;4.00;;;2.92;;
68140;SDS011;54941;52.220;104.306;2023-05-15T01:51:08;3.30;;;2.17;;
68140;SDS011;54941;52.220;104.306;2023-05-15T01:53:37;3.75;;;2.67;;
68140;SDS011;54941;52.220;104.306;2023-05-15T01:58:34;4.30;;;2.55;;
68140;SDS011;54941;52.220;104.306;2023-05-15T02:01:03;3.90;;;2.70;;
68140;SDS011;54941;52.220;104.306;2023-05-15T02:03:32;3.78;;;2.38;;
68140;SDS011;54941;52.220;104.306;2023-05-15T02:05:58;4.10;;;2.72;;
68140;SDS011;54941;52.220;104.306;2023-05-15T02:08:26;3.80;;;2.60;;
68140;SDS011;54941;52.220;104.306;2023-05-15T02:10:52;4.07;;;2.33;;
68140;SDS011;54941;52.220;104.306;2023-05-15T02:13:20;3.78;;;2.63;;
68140;SDS011;54941;52.220;104.306;2023-05-15T02:15:49;5.03;;;3.03;;
68140;SDS011;54941;52.220;104.306;2023-05-15T02:18:17;3.30;;;2.20;;
68140;SDS011;54941;52.220;104.306;2023-05-15T02:20:44;2.95;;;1.88;;
68140;SDS011;54941;52.220;104.306;2023-05-15T02:23:10;3.70;;;2.38;;
68140;SDS011;54941;52.220;104.306;2023-05-15T02:25:39;3.85;;;2.65;;
68140;SDS011;54941;52.220;104.306;2023-05-15T02:28:13;3.40;;;1.98;;
68140;SDS011;54941;52.220;104.306;2023-05-15T02:30:48;4.03;;;2.65;;
68140;SDS011;54941;52.220;104.306;2023-05-15T02:33:25;4.82;;;2.78;;
68140;SDS011;54941;52.220;104.306;2023-05-15T02:36:00;6.18;;;2.83;;
68140;SDS011;54941;52.220;104.306;2023-05-15T02:38:34;3.13;;;2.10;;
68140;SDS011;54941;52.220;104.306;2023-05-15T02:41:05;3.47;;;2.00;;
68140;SDS011;54941;52.220;104.306;2023-05-15T02:43:34;3.53;;;2.17;;
68140;SDS011;54941;52.220;104.306;2023-05-15T02:46:01;3.65;;;2.20;;
68140;SDS011;54941;52.220;104.306;2023-05-15T02:48:31;5.43;;;2.50;;
68140;SDS011;54941;52.220;104.306;2023-05-15T02:53:24;2.88;;;1.90;;
68140;SDS011;54941;52.220;104.306;2023-05-15T02:55:50;3.05;;;1.80;;
68140;SDS011;54941;52.220;104.306;2023-05-15T02:58:16;2.80;;;1.70;;
68140;SDS011;54941;52.220;104.306;2023-05-15T03:00:43;2.47;;;1.77;;
68140;SDS011;54941;52.220;104.306;2023-05-15T03:03:09;3.83;;;2.15;;
68140;SDS011;54941;52.220;104.306;2023-05-15T03:05:37;2.80;;;1.60;;
68140;SDS011;54941;52.220;104.306;2023-05-15T03:08:04;3.33;;;1.90;;
68140;SDS011;54941;52.220;104.306;2023-05-15T03:10:30;3.22;;;2.10;;
68140;SDS011;54941;52.220;104.306;2023-05-15T03:12:56;3.38;;;1.95;;
68140;SDS011;54941;52.220;104.306;2023-05-15T03:15:23;2.72;;;1.80;;
68140;SDS011;54941;52.220;104.306;2023-05-15T03:17:49;2.45;;;1.33;;
68140;SDS011;54941;52.220;104.306;2023-05-15T03:20:16;2.63;;;1.30;;
68140;SDS011;54941;52.220;104.306;2023-05-15T03:22:44;2.50;;;1.95;;
68140;SDS011;54941;52.220;104.306;2023-05-15T03:25:10;4.30;;;1.60;;
68140;SDS011;54941;52.220;104.306;2023-05-15T03:27:37;3.25;;;1.45;;
68140;SDS011;54941;52.220;104.306;2023-05-15T03:30:04;2.90;;;1.83;;
68140;SDS011;54941;52.220;104.306;2023-05-15T03:32:32;2.50;;;1.80;;
68140;SDS011;54941;52.220;104.306;2023-05-15T03:34:58;2.47;;;1.58;;
68140;SDS011;54941;52.220;104.306;2023-05-15T03:37:24;2.83;;;2.10;;
68140;SDS011;54941;52.220;104.306;2023-05-15T03:39:52;2.45;;;1.83;;
68140;SDS011;54941;52.220;104.306;2023-05-15T03:42:18;3.28;;;2.00;;
68140;SDS011;54941;52.220;104.306;2023-05-15T03:44:45;2.97;;;2.13;;
68140;SDS011;54941;52.220;104.306;2023-05-15T03:47:11;4.97;;;1.70;;
68140;SDS011;54941;52.220;104.306;2023-05-15T03:49:38;2.95;;;1.80;;
68140;SDS011;54941;52.220;104.306;2023-05-15T03:52:04;3.88;;;1.70;;
68140;SDS011;54941;52.220;104.306;2023-05-15T03:54:31;2.47;;;1.40;;
68140;SDS011;54941;52.220;104.306;2023-05-15T03:56:59;3.40;;;1.90;;
68140;SDS011;54941;52.220;104.306;2023-05-15T03:59:36;3.38;;;1.95;;
68140;SDS011;54941;52.220;104.306;2023-05-15T04:02:02;4.32;;;2.22;;
68140;SDS011;54941;52.220;104.306;2023-05-15T04:04:28;3.00;;;1.98;;
68140;SDS011;54941;52.220;104.306;2023-05-15T04:06:55;2.80;;;1.50;;
68140;SDS011;54941;52.220;104.306;2023-05-15T04:09:21;3.38;;;2.20;;
68140;SDS011;54941;52.220;104.306;2023-05-15T04:11:48;2.55;;;1.83;;
68140;SDS011;54941;52.220;104.306;2023-05-15T04:14:15;2.65;;;1.35;;
68140;SDS011;54941;52.220;104.306;2023-05-15T04:16:42;4.15;;;1.60;;
68140;SDS011;54941;52.220;104.306;2023-05-15T04:19:08;5.60;;;2.08;;
68140;SDS011;54941;52.220;104.306;2023-05-15T04:21:34;3.10;;;1.70;;
68140;SDS011;54941;52.220;104.306;2023-05-15T04:24:01;3.13;;;2.00;;
68140;SDS011;54941;52.220;104.306;2023-05-15T04:26:27;2.53;;;1.58;;
68140;SDS011;54941;52.220;104.306;2023-05-15T04:28:53;3.03;;;1.70;;
68140;SDS011;54941;52.220;104.306;2023-05-15T04:31:21;2.85;;;1.70;;
68140;SDS011;54941;52.220;104.306;2023-05-15T04:33:47;3.22;;;1.92;;
68140;SDS011;54941;52.220;104.306;2023-05-15T04:36:14;2.60;;;2.00;;
68140;SDS011;54941;52.220;104.306;2023-05-15T04:38:40;2.88;;;2.10;;
68140;SDS011;54941;52.220;104.306;2023-05-15T04:41:06;3.40;;;2.10;;
68140;SDS011;54941;52.220;104.306;2023-05-15T04:43:32;3.30;;;1.80;;
68140;SDS011;54941;52.220;104.306;2023-05-15T04:45:59;2.85;;;1.45;;
68140;SDS011;54941;52.220;104.306;2023-05-15T04:48:26;3.55;;;2.15;;
68140;SDS011;54941;52.220;104.306;2023-05-15T04:50:53;2.70;;;1.80;;
68140;SDS011;54941;52.220;104.306;2023-05-15T04:53:19;4.47;;;2.42;;
68140;SDS011;54941;52.220;104.306;2023-05-15T04:55:45;2.78;;;1.42;;
68140;SDS011;54941;52.220;104.306;2023-05-15T04:58:11;3.05;;;2.28;;
68140;SDS011;54941;52.220;104.306;2023-05-15T05:00:39;2.95;;;1.73;;
68140;SDS011;54941;52.220;104.306;2023-05-15T05:03:06;2.97;;;1.92;;
68140;SDS011;54941;52.220;104.306;2023-05-15T05:05:34;3.05;;;1.98;;
68140;SDS011;54941;52.220;104.306;2023-05-15T05:08:00;3.85;;;2.30;;
68140;SDS011;54941;52.220;104.306;2023-05-15T05:10:27;2.75;;;1.77;;
68140;SDS011;54941;52.220;104.306;2023-05-15T05:12:53;2.75;;;1.60;;
68140;SDS011;54941;52.220;104.306;2023-05-15T05:15:20;4.18;;;3.10;;
68140;SDS011;54941;52.220;104.306;2023-05-15T05:17:46;3.95;;;2.58;;
68140;SDS011;54941;52.220;104.306;2023-05-15T05:20:12;4.60;;;3.17;;
68140;SDS011;54941;52.220;104.306;2023-05-15T05:22:40;4.50;;;2.50;;
68140;SDS011;54941;52.220;104.306;2023-05-15T05:25:08;4.68;;;3.10;;
68140;SDS011;54941;52.220;104.306;2023-05-15T05:27:35;3.75;;;2.00;;
68140;SDS011;54941;52.220;104.306;2023-05-15T05:30:01;3.28;;;1.60;;
68140;SDS011;54941;52.220;104.306;2023-05-15T05:32:31;3.17;;;2.20;;
68140;SDS011;54941;52.220;104.306;2023-05-15T05:34:57;3.38;;;2.00;;
68140;SDS011;54941;52.220;104.306;2023-05-15T05:37:23;4.07;;;2.00;;
68140;SDS011;54941;52.220;104.306;2023-05-15T05:39:55;4.07;;;2.15;;
68140;SDS011;54941;52.220;104.306;2023-05-15T05:42:22;4.63;;;2.67;;
68140;SDS011;54941;52.220;104.306;2023-05-15T05:44:48;3.47;;;2.15;;
68140;SDS011;54941;52.220;104.306;2023-05-15T05:47:15;2.90;;;1.98;;
68140;SDS011;54941;52.220;104.306;2023-05-15T05:49:41;4.05;;;2.00;;
68140;SDS011;54941;52.220;104.306;2023-05-15T05:52:07;4.55;;;2.63;;
68140;SDS011;54941;52.220;104.306;2023-05-15T05:54:34;3.53;;;2.20;;
68140;SDS011;54941;52.220;104.306;2023-05-15T05:57:02;4.25;;;2.75;;
68140;SDS011;54941;52.220;104.306;2023-05-15T05:59:28;4.13;;;2.85;;
68140;SDS011;54941;52.220;104.306;2023-05-15T06:01:57;3.83;;;2.45;;
68140;SDS011;54941;52.220;104.306;2023-05-15T06:04:24;3.55;;;2.30;;
68140;SDS011;54941;52.220;104.306;2023-05-15T06:06:50;4.53;;;2.20;;
68140;SDS011;54941;52.220;104.306;2023-05-15T06:09:16;3.55;;;1.75;;
68140;SDS011;54941;52.220;104.306;2023-05-15T06:11:43;3.53;;;2.70;;
68140;SDS011;54941;52.220;104.306;2023-05-15T06:14:10;3.42;;;2.10;;
68140;SDS011;54941;52.220;104.306;2023-05-15T06:16:37;4.32;;;2.33;;
68140;SDS011;54941;52.220;104.306;2023-05-15T06:19:03;4.03;;;1.98;;
68140;SDS011;54941;52.220;104.306;2023-05-15T06:21:29;3.70;;;2.17;;
68140;SDS011;54941;52.220;104.306;2023-05-15T06:23:56;4.35;;;2.00;;
68140;SDS011;54941;52.220;104.306;2023-05-15T06:26:22;3.40;;;2.15;;
68140;SDS011;54941;52.220;104.306;2023-05-15T06:28:48;3.63;;;2.20;;
68140;SDS011;54941;52.220;104.306;2023-05-15T06:31:16;4.38;;;2.22;;
68140;SDS011;54941;52.220;104.306;2023-05-15T06:33:42;2.72;;;1.80;;
68140;SDS011;54941;52.220;104.306;2023-05-15T06:36:09;4.15;;;1.92;;
68140;SDS011;54941;52.220;104.306;2023-05-15T06:38:35;3.30;;;2.10;;
68140;SDS011;54941;52.220;104.306;2023-05-15T06:41:01;3.30;;;2.35;;
68140;SDS011;54941;52.220;104.306;2023-05-15T06:43:28;5.35;;;2.67;;
68140;SDS011;54941;52.220;104.306;2023-05-15T06:45:54;3.38;;;2.10;;
68140;SDS011;54941;52.220;104.306;2023-05-15T06:48:22;4.63;;;2.85;;
68140;SDS011;54941;52.220;104.306;2023-05-15T06:50:48;5.15;;;2.58;;
68140;SDS011;54941;52.220;104.306;2023-05-15T06:53:14;4.35;;;2.35;;
68140;SDS011;54941;52.220;104.306;2023-05-15T06:55:41;3.97;;;2.78;;
68140;SDS011;54941;52.220;104.306;2023-05-15T06:58:07;6.28;;;3.85;;
68140;SDS011;54941;52.220;104.306;2023-05-15T07:00:33;9.75;;;2.40;;
68140;SDS011;54941;52.220;104.306;2023-05-15T07:03:00;5.95;;;2.03;;
68140;SDS011;54941;52.220;104.306;2023-05-15T07:05:27;3.75;;;2.10;;
68140;SDS011;54941;52.220;104.306;2023-05-15T07:07:54;4.32;;;2.00;;
68140;SDS011;54941;52.220;104.306;2023-05-15T07:10:20;3.47;;;2.03;;
68140;SDS011;54941;52.220;104.306;2023-05-15T07:12:46;4.15;;;1.70;;
68140;SDS011;54941;52.220;104.306;2023-05-15T07:15:13;3.33;;;2.08;;
68140;SDS011;54941;52.220;104.306;2023-05-15T07:17:39;4.65;;;2.50;;
68140;SDS011;54941;52.220;104.306;2023-05-15T07:20:06;3.08;;;2.25;;
68140;SDS011;54941;52.220;104.306;2023-05-15T07:22:34;3.35;;;2.00;;
68140;SDS011;54941;52.220;104.306;2023-05-15T07:25:00;3.38;;;2.30;;
68140;SDS011;54941;52.220;104.306;2023-05-15T07:27:27;4.30;;;2.55;;
68140;SDS011;54941;52.220;104.306;2023-05-15T07:29:53;3.20;;;1.98;;
68140;SDS011;54941;52.220;104.306;2023-05-15T07:32:19;3.60;;;2.47;;
68140;SDS011;54941;52.220;104.306;2023-05-15T07:34:46;4.38;;;2.05;;
68140;SDS011;54941;52.220;104.306;2023-05-15T07:37:12;3.25;;;2.17;;
68140;SDS011;54941;52.220;104.306;2023-05-15T07:39:40;4.07;;;2.22;;
68140;SDS011;54941;52.220;104.306;2023-05-15T07:42:06;2.80;;;2.08;;
68140;SDS011;54941;52.220;104.306;2023-05-15T07:44:32;3.10;;;2.22;;
68140;SDS011;54941;52.220;104.306;2023-05-15T07:46:59;3.20;;;1.95;;
68140;SDS011;54941;52.220;104.306;2023-05-15T07:49:25;3.33;;;2.42;;
68140;SDS011;54941;52.220;104.306;2023-05-15T07:51:51;3.50;;;2.30;;
68140;SDS011;54941;52.220;104.306;2023-05-15T07:54:17;3.83;;;2.00;;
68140;SDS011;54941;52.220;104.306;2023-05-15T07:56:45;3.50;;;2.40;;
68140;SDS011;54941;52.220;104.306;2023-05-15T07:59:11;7.40;;;2.22;;
68140;SDS011;54941;52.220;104.306;2023-05-15T08:01:38;3.60;;;2.28;;
68140;SDS011;54941;52.220;104.306;2023-05-15T08:04:05;4.07;;;1.92;;
68140;SDS011;54941;52.220;104.306;2023-05-15T08:06:33;3.53;;;2.60;;
68140;SDS011;54941;52.220;104.306;2023-05-15T08:08:59;3.80;;;2.40;;
68140;SDS011;54941;52.220;104.306;2023-05-15T08:11:25;4.18;;;1.80;;
68140;SDS011;54941;52.220;104.306;2023-05-15T08:13:53;3.92;;;2.20;;
68140;SDS011;54941;52.220;104.306;2023-05-15T08:16:20;3.35;;;2.25;;
68140;SDS011;54941;52.220;104.306;2023-05-15T08:18:46;3.58;;;2.40;;
68140;SDS011;54941;52.220;104.306;2023-05-15T08:21:12;3.08;;;2.00;;
68140;SDS011;54941;52.220;104.306;2023-05-15T08:23:39;5.07;;;2.15;;
68140;SDS011;54941;52.220;104.306;2023-05-15T08:26:05;4.60;;;2.60;;
68140;SDS011;54941;52.220;104.306;2023-05-15T08:28:31;3.50;;;2.10;;
68140;SDS011;54941;52.220;104.306;2023-05-15T08:30:59;3.97;;;1.98;;
68140;SDS011;54941;52.220;104.306;2023-05-15T08:33:25;3.33;;;1.85;;
68140;SDS011;54941;52.220;104.306;2023-05-15T08:35:52;3.83;;;2.33;;
68140;SDS011;54941;52.220;104.306;2023-05-15T08:38:18;4.03;;;2.60;;
68140;SDS011;54941;52.220;104.306;2023-05-15T08:40:45;3.97;;;1.60;;
68140;SDS011;54941;52.220;104.306;2023-05-15T08:43:15;3.17;;;1.83;;
68140;SDS011;54941;52.220;104.306;2023-05-15T08:45:42;3.03;;;2.00;;
68140;SDS011;54941;52.220;104.306;2023-05-15T08:48:12;3.33;;;2.50;;
68140;SDS011;54941;52.220;104.306;2023-05-15T08:50:40;3.95;;;2.40;;
68140;SDS011;54941;52.220;104.306;2023-05-15T08:53:07;3.60;;;2.22;;
68140;SDS011;54941;52.220;104.306;2023-05-15T08:55:35;3.55;;;2.10;;
68140;SDS011;54941;52.220;104.306;2023-05-15T08:58:01;3.60;;;2.10;;
68140;SDS011;54941;52.220;104.306;2023-05-15T09:00:28;3.42;;;1.90;;
68140;SDS011;54941;52.220;104.306;2023-05-15T09:02:57;2.90;;;1.92;;
68140;SDS011;54941;52.220;104.306;2023-05-15T09:05:26;3.75;;;2.45;;
68140;SDS011;54941;52.220;104.306;2023-05-15T09:07:53;3.20;;;1.77;;
68140;SDS011;54941;52.220;104.306;2023-05-15T09:10:20;3.50;;;1.92;;
68140;SDS011;54941;52.220;104.306;2023-05-15T09:12:47;3.03;;;1.88;;
68140;SDS011;54941;52.220;104.306;2023-05-15T09:15:16;3.55;;;2.40;;
68140;SDS011;54941;52.220;104.306;2023-05-15T09:17:43;4.93;;;2.65;;
68140;SDS011;54941;52.220;104.306;2023-05-15T09:20:28;3.55;;;2.20;;
68140;SDS011;54941;52.220;104.306;2023-05-15T09:22:55;4.13;;;2.30;;
68140;SDS011;54941;52.220;104.306;2023-05-15T09:25:32;4.78;;;2.35;;
68140;SDS011;54941;52.220;104.306;2023-05-15T09:28:03;3.90;;;2.60;;
68140;SDS011;54941;52.220;104.306;2023-05-15T09:30:29;4.10;;;2.60;;
68140;SDS011;54941;52.220;104.306;2023-05-15T09:32:57;4.55;;;2.53;;
68140;SDS011;54941;52.220;104.306;2023-05-15T09:35:31;3.17;;;2.13;;
68140;SDS011;54941;52.220;104.306;2023-05-15T09:37:58;3.53;;;2.33;;
68140;SDS011;54941;52.220;104.306;2023-05-15T09:40:27;3.63;;;2.00;;
68140;SDS011;54941;52.220;104.306;2023-05-15T09:42:54;3.42;;;2.42;;
68140;SDS011;54941;52.220;104.306;2023-05-15T09:45:23;6.10;;;3.38;;
68140;SDS011;54941;52.220;104.306;2023-05-15T09:47:50;3.72;;;2.10;;
68140;SDS011;54941;52.220;104.306;2023-05-15T09:50:19;4.00;;;2.35;;
68140;SDS011;54941;52.220;104.306;2023-05-15T09:52:51;3.83;;;1.85;;
68140;SDS011;54941;52.220;104.306;2023-05-15T09:55:20;3.55;;;2.25;;
68140;SDS011;54941;52.220;104.306;2023-05-15T10:00:32;3.60;;;2.22;;
68140;SDS011;54941;52.220;104.306;2023-05-15T10:02:59;3.50;;;2.03;;
68140;SDS011;54941;52.220;104.306;2023-05-15T10:05:26;4.35;;;2.78;;
68140;SDS011;54941;52.220;104.306;2023-05-15T10:07:54;4.15;;;2.80;;
68140;SDS011;54941;52.220;104.306;2023-05-15T10:10:21;3.47;;;2.50;;
68140;SDS011;54941;52.220;104.306;2023-05-15T10:12:48;3.80;;;2.13;;
68140;SDS011;54941;52.220;104.306;2023-05-15T10:15:16;3.08;;;2.00;;
68140;SDS011;54941;52.220;104.306;2023-05-15T10:17:43;3.38;;;2.08;;
68140;SDS011;54941;52.220;104.306;2023-05-15T10:20:11;4.25;;;2.60;;
68140;SDS011;54941;52.220;104.306;2023-05-15T10:22:39;4.38;;;2.65;;
68140;SDS011;54941;52.220;104.306;2023-05-15T10:25:08;6.57;;;2.40;;
68140;SDS011;54941;52.220;104.306;2023-05-15T10:27:43;4.32;;;2.60;;
68140;SDS011;54941;52.220;104.306;2023-05-15T10:30:12;4.47;;;2.45;;
68140;SDS011;54941;52.220;104.306;2023-05-15T10:32:40;4.88;;;2.63;;
68140;SDS011;54941;52.220;104.306;2023-05-15T10:35:08;4.78;;;2.20;;
68140;SDS011;54941;52.220;104.306;2023-05-15T10:37:40;6.63;;;2.40;;
68140;SDS011;54941;52.220;104.306;2023-05-15T10:40:16;3.75;;;2.10;;
68140;SDS011;54941;52.220;104.306;2023-05-15T10:42:44;3.40;;;2.15;;
68140;SDS011;54941;52.220;104.306;2023-05-15T10:45:11;3.65;;;2.20;;
68140;SDS011;54941;52.220;104.306;2023-05-15T10:47:38;4.47;;;2.85;;
68140;SDS011;54941;52.220;104.306;2023-05-15T10:50:06;4.85;;;2.78;;
68140;SDS011;54941;52.220;104.306;2023-05-15T10:52:35;5.80;;;2.55;;
68140;SDS011;54941;52.220;104.306;2023-05-15T10:55:02;4.28;;;2.55;;
68140;SDS011;54941;52.220;104.306;2023-05-15T10:57:33;5.10;;;3.15;;
68140;SDS011;54941;52.220;104.306;2023-05-15T10:59:59;6.38;;;2.85;;
68140;SDS011;54941;52.220;104.306;2023-05-15T11:02:27;4.82;;;2.55;;
68140;SDS011;54941;52.220;104.306;2023-05-15T11:05:02;4.10;;;2.80;;
68140;SDS011;54941;52.220;104.306;2023-05-15T11:07:31;3.72;;;2.40;;
68140;SDS011;54941;52.220;104.306;2023-05-15T11:09:58;4.15;;;2.47;;
68140;SDS011;54941;52.220;104.306;2023-05-15T11:12:24;5.40;;;3.28;;
68140;SDS011;54941;52.220;104.306;2023-05-15T11:15:19;3.97;;;2.22;;
68140;SDS011;54941;52.220;104.306;2023-05-15T11:18:00;3.60;;;1.85;;
68140;SDS011;54941;52.220;104.306;2023-05-15T11:20:33;3.50;;;2.30;;
68140;SDS011;54941;52.220;104.306;2023-05-15T11:23:03;4.47;;;2.50;;
68140;SDS011;54941;52.220;104.306;2023-05-15T11:25:29;4.10;;;2.88;;
68140;SDS011;54941;52.220;104.306;2023-05-15T11:27:56;3.28;;;2.33;;
68140;SDS011;54941;52.220;104.306;2023-05-15T11:30:27;3.47;;;2.30;;
68140;SDS011;54941;52.220;104.306;2023-05-15T11:33:00;4.25;;;2.10;;
68140;SDS011;54941;52.220;104.306;2023-05-15T11:35:29;4.05;;;2.60;;
68140;SDS011;54941;52.220;104.306;2023-05-15T11:37:57;3.83;;;2.20;;
68140;SDS011;54941;52.220;104.306;2023-05-15T11:40:24;4.32;;;2.30;;
68140;SDS011;54941;52.220;104.306;2023-05-15T11:42:58;5.13;;;2.90;;
68140;SDS011;54941;52.220;104.306;2023-05-15T11:45:28;3.85;;;2.47;;
68140;SDS011;54941;52.220;104.306;2023-05-15T11:47:59;5.75;;;2.85;;
68140;SDS011;54941;52.220;104.306;2023-05-15T11:50:38;6.40;;;2.95;;
68140;SDS011;54941;52.220;104.306;2023-05-15T11:53:06;5.38;;;2.40;;
68140;SDS011;54941;52.220;104.306;2023-05-15T11:55:35;4.25;;;2.50;;
68140;SDS011;54941;52.220;104.306;2023-05-15T11:58:09;5.78;;;2.80;;
68140;SDS011;54941;52.220;104.306;2023-05-15T12:00:37;4.57;;;2.72;;
68140;SDS011;54941;52.220;104.306;2023-05-15T12:03:04;5.55;;;2.90;;
68140;SDS011;54941;52.220;104.306;2023-05-15T12:05:30;5.35;;;3.13;;
68140;SDS011;54941;52.220;104.306;2023-05-15T12:07:56;4.75;;;3.40;;
68140;SDS011;54941;52.220;104.306;2023-05-15T12:10:23;7.55;;;3.50;;
68140;SDS011;54941;52.220;104.306;2023-05-15T12:12:50;7.85;;;4.70;;
68140;SDS011;54941;52.220;104.306;2023-05-15T12:15:16;4.95;;;2.72;;
68140;SDS011;54941;52.220;104.306;2023-05-15T12:17:44;3.92;;;2.67;;
68140;SDS011;54941;52.220;104.306;2023-05-15T12:20:11;3.80;;;2.35;;
68140;SDS011;54941;52.220;104.306;2023-05-15T12:22:40;4.80;;;2.63;;
68140;SDS011;54941;52.220;104.306;2023-05-15T12:25:07;5.90;;;2.97;;
68140;SDS011;54941;52.220;104.306;2023-05-15T12:27:34;6.30;;;3.03;;
68140;SDS011;54941;52.220;104.306;2023-05-15T12:30:01;4.47;;;2.80;;
68140;SDS011;54941;52.220;104.306;2023-05-15T12:32:31;7.20;;;3.20;;
68140;SDS011;54941;52.220;104.306;2023-05-15T12:35:00;5.13;;;3.00;;
68140;SDS011;54941;52.220;104.306;2023-05-15T12:37:29;5.30;;;3.38;;
68140;SDS011;54941;52.220;104.306;2023-05-15T12:39:58;4.90;;;2.78;;
68140;SDS011;54941;52.220;104.306;2023-05-15T12:42:26;5.65;;;3.10;;
68140;SDS011;54941;52.220;104.306;2023-05-15T12:44:53;5.10;;;3.20;;
68140;SDS011;54941;52.220;104.306;2023-05-15T12:47:21;5.80;;;3.90;;
68140;SDS011;54941;52.220;104.306;2023-05-15T12:49:47;6.95;;;3.80;;
68140;SDS011;54941;52.220;104.306;2023-05-15T12:52:21;6.10;;;3.42;;
68140;SDS011;54941;52.220;104.306;2023-05-15T12:54:48;6.70;;;3.58;;
68140;SDS011;54941;52.220;104.306;2023-05-15T12:57:15;5.68;;;2.92;;
68140;SDS011;54941;52.220;104.306;2023-05-15T12:59:41;5.35;;;3.10;;
68140;SDS011;54941;52.220;104.306;2023-05-15T13:02:08;7.05;;;3.90;;
68140;SDS011;54941;52.220;104.306;2023-05-15T13:04:36;6.93;;;3.78;;
68140;SDS011;54941;52.220;104.306;2023-05-15T13:07:03;6.32;;;4.22;;
68140;SDS011;54941;52.220;104.306;2023-05-15T13:09:33;7.85;;;3.30;;
68140;SDS011;54941;52.220;104.306;2023-05-15T13:12:00;6.38;;;3.90;;
68140;SDS011;54941;52.220;104.306;2023-05-15T13:14:31;5.05;;;2.85;;
68140;SDS011;54941;52.220;104.306;2023-05-15T13:16:58;8.20;;;3.10;;
68140;SDS011;54941;52.220;104.306;2023-05-15T13:19:24;8.10;;;4.35;;
68140;SDS011;54941;52.220;104.306;2023-05-15T13:21:52;6.75;;;3.60;;
68140;SDS011;54941;52.220;104.306;2023-05-15T13:24:18;5.75;;;2.60;;
68140;SDS011;54941;52.220;104.306;2023-05-15T13:26:46;5.53;;;3.22;;
68140;SDS011;54941;52.220;104.306;2023-05-15T13:29:12;5.55;;;3.55;;
68140;SDS011;54941;52.220;104.306;2023-05-15T13:31:39;9.70;;;3.30;;
68140;SDS011;54941;52.220;104.306;2023-05-15T13:34:06;6.05;;;2.85;;
68140;SDS011;54941;52.220;104.306;2023-05-15T13:36:32;5.07;;;3.58;;
68140;SDS011;54941;52.220;104.306;2023-05-15T13:38:59;5.47;;;2.90;;
68140;SDS011;54941;52.220;104.306;2023-05-15T13:41:25;5.15;;;2.80;;
68140;SDS011;54941;52.220;104.306;2023-05-15T13:43:53;4.85;;;3.03;;
68140;SDS011;54941;52.220;104.306;2023-05-15T13:46:19;5.13;;;2.88;;
68140;SDS011;54941;52.220;104.306;2023-05-15T13:48:45;5.95;;;2.90;;
68140;SDS011;54941;52.220;104.306;2023-05-15T13:51:12;8.05;;;3.53;;
68140;SDS011;54941;52.220;104.306;2023-05-15T13:53:38;6.15;;;3.10;;
68140;SDS011;54941;52.220;104.306;2023-05-15T13:56:04;4.13;;;3.22;;
68140;SDS011;54941;52.220;104.306;2023-05-15T13:58:31;6.22;;;3.45;;
68140;SDS011;54941;52.220;104.306;2023-05-15T14:00:59;6.25;;;3.30;;
68140;SDS011;54941;52.220;104.306;2023-05-15T14:03:27;5.78;;;3.15;;
68140;SDS011;54941;52.220;104.306;2023-05-15T14:05:53;6.38;;;3.15;;
68140;SDS011;54941;52.220;104.306;2023-05-15T14:08:19;4.78;;;2.58;;
68140;SDS011;54941;52.220;104.306;2023-05-15T14:10:46;5.57;;;2.90;;
68140;SDS011;54941;52.220;104.306;2023-05-15T14:13:12;5.15;;;3.47;;
68140;SDS011;54941;52.220;104.306;2023-05-15T14:15:39;8.45;;;3.30;;
68140;SDS011;54941;52.220;104.306;2023-05-15T14:18:07;4.25;;;2.92;;
68140;SDS011;54941;52.220;104.306;2023-05-15T14:20:33;5.57;;;3.10;;
68140;SDS011;54941;52.220;104.306;2023-05-15T14:23:00;6.15;;;2.88;;
68140;SDS011;54941;52.220;104.306;2023-05-15T14:25:26;6.22;;;3.28;;
68140;SDS011;54941;52.220;104.306;2023-05-15T14:27:52;5.47;;;3.35;;
68140;SDS011;54941;52.220;104.306;2023-05-15T14:30:20;4.57;;;2.95;;
68140;SDS011;54941;52.220;104.306;2023-05-15T14:32:47;5.68;;;2.90;;
68140;SDS011;54941;52.220;104.306;2023-05-15T14:35:15;6.35;;;3.00;;